createdAt,value
2023-04-03T00:00:25.844Z,2.93
2023-04-03T00:03:29.071Z,2.96
2023-04-03T00:06:32.082Z,2.96
2023-04-03T00:09:34.699Z,2.89
2023-04-03T00:12:37.529Z,2.93
2023-04-03T00:15:41.269Z,2.87
2023-04-03T00:18:44.125Z,2.88
2023-04-03T00:21:46.893Z,2.81
2023-04-03T00:24:49.741Z,2.81
2023-04-03T00:27:52.759Z,2.81
2023-04-03T00:30:55.539Z,2.80
2023-04-03T00:33:58.356Z,2.75
2023-04-03T00:37:01.233Z,2.71
2023-04-03T00:40:06.197Z,2.67
2023-04-03T00:43:17.677Z,2.76
2023-04-03T00:46:20.998Z,2.73
2023-04-03T00:49:23.857Z,2.59
2023-04-03T00:52:31.052Z,2.51
2023-04-03T00:55:35.713Z,2.55
2023-04-03T00:58:41.864Z,2.53
2023-04-03T01:01:45.645Z,2.47
2023-04-03T01:04:48.987Z,2.44
2023-04-03T01:07:55.967Z,2.49
2023-04-03T01:10:58.943Z,2.45
2023-04-03T01:14:03.289Z,2.41
2023-04-03T01:17:34.926Z,2.48
2023-04-03T01:20:55.672Z,2.46
2023-04-03T01:24:18.898Z,2.41
2023-04-03T01:27:22.308Z,2.45
2023-04-03T01:30:29.957Z,2.39
2023-04-03T01:33:34.854Z,2.41
2023-04-03T01:36:37.928Z,2.42
2023-04-03T01:39:40.783Z,2.53
2023-04-03T01:42:44.673Z,2.43
2023-04-03T01:45:48.505Z,2.45
2023-04-03T01:48:51.661Z,2.51
2023-04-03T01:51:54.285Z,2.49
2023-04-03T01:54:57.353Z,2.50
2023-04-03T01:58:00.136Z,2.46
2023-04-03T02:01:03.638Z,2.46
2023-04-03T02:04:06.919Z,2.55
2023-04-03T02:07:09.695Z,2.47
2023-04-03T02:10:12.699Z,2.55
2023-04-03T02:13:15.811Z,2.47
2023-04-03T02:16:18.615Z,2.57
2023-04-03T02:19:21.486Z,2.58
2023-04-03T02:22:24.419Z,2.51
2023-04-03T02:25:28.029Z,2.57
2023-04-03T02:28:31.185Z,2.58
2023-04-03T02:31:35.168Z,2.56
2023-04-03T02:34:39.059Z,2.54
2023-04-03T02:37:42.589Z,2.58
2023-04-03T02:40:45.951Z,2.55
2023-04-03T02:43:48.687Z,2.64
2023-04-03T02:46:52.599Z,2.57
2023-04-03T02:49:55.735Z,2.64
2023-04-03T02:52:58.491Z,2.71
2023-04-03T02:56:01.312Z,2.65
2023-04-03T02:59:04.720Z,2.62
2023-04-03T03:02:09.879Z,2.55
2023-04-03T03:05:12.879Z,2.61
2023-04-03T03:08:16.121Z,2.67
2023-04-03T03:11:19.188Z,2.63
2023-04-03T03:14:21.992Z,2.66
2023-04-03T03:17:24.632Z,2.68
2023-04-03T03:20:27.905Z,2.56
2023-04-03T03:23:33.643Z,2.53
2023-04-03T03:26:37.232Z,2.58
2023-04-03T03:29:40.196Z,2.46
2023-04-03T03:32:43.129Z,2.52
2023-04-03T03:35:46.389Z,2.57
2023-04-03T03:38:49.184Z,2.60
2023-04-03T03:41:51.988Z,2.56
2023-04-03T03:44:54.716Z,2.61
2023-04-03T03:47:57.602Z,2.49
2023-04-03T03:51:00.759Z,2.48
2023-04-03T03:54:08.116Z,2.59
2023-04-03T03:57:11.387Z,2.49
2023-04-03T04:00:14.663Z,2.53
2023-04-03T04:03:26.663Z,2.47
2023-04-03T04:06:29.552Z,2.43
2023-04-03T04:09:36.082Z,2.44
2023-04-03T04:12:38.852Z,2.43
2023-04-03T04:15:41.769Z,2.36
2023-04-03T04:18:44.567Z,2.41
2023-04-03T04:21:47.734Z,2.43
2023-04-03T04:24:51.123Z,2.49
2023-04-03T04:27:54.265Z,2.40
2023-04-03T04:30:57.276Z,2.44
2023-04-03T04:34:02.489Z,2.46
2023-04-03T04:37:05.879Z,2.45
2023-04-03T04:40:09.516Z,2.52
2023-04-03T04:43:15.886Z,2.47
2023-04-03T04:46:21.001Z,2.42
2023-04-03T04:49:29.474Z,2.43
2023-04-03T04:52:32.615Z,2.44
2023-04-03T04:55:36.324Z,2.53
2023-04-03T04:58:39.907Z,2.61
2023-04-03T05:01:44.397Z,2.65
2023-04-03T05:04:53.436Z,2.64
2023-04-03T05:08:04.148Z,2.73
2023-04-03T05:11:06.926Z,2.69
2023-04-03T05:14:10.709Z,2.69
2023-04-03T05:17:13.799Z,2.76
2023-04-03T05:20:21.415Z,2.61
2023-04-03T05:23:26.230Z,2.73
2023-04-03T05:26:30.675Z,2.68
2023-04-03T05:29:34.473Z,2.60
2023-04-03T05:32:38.816Z,2.64
2023-04-03T05:36:09.005Z,2.59
2023-04-03T05:39:17.711Z,2.66
2023-04-03T05:42:23.177Z,2.58
2023-04-03T05:45:26.452Z,2.69
2023-04-03T05:48:29.386Z,2.62
2023-04-03T05:51:36.350Z,2.39
2023-04-03T05:54:58.824Z,2.32
2023-04-03T05:58:04.595Z,2.08
2023-04-03T06:01:07.903Z,1.99
2023-04-03T06:04:12.208Z,1.85
2023-04-03T06:07:18.989Z,1.87
2023-04-03T06:10:22.057Z,1.86
2023-04-03T06:13:25.234Z,1.83
2023-04-03T06:16:28.110Z,1.81
2023-04-03T06:19:31.081Z,1.96
2023-04-03T06:22:34.302Z,1.87
2023-04-03T06:25:37.931Z,1.84
2023-04-03T06:28:41.068Z,1.84
2023-04-03T06:31:44.257Z,1.89
2023-04-03T06:34:47.999Z,1.93
2023-04-03T06:37:51.190Z,2.00
2023-04-03T06:40:53.828Z,2.01
2023-04-03T06:43:58.868Z,2.02
2023-04-03T06:47:02.207Z,2.11
2023-04-03T06:50:05.537Z,2.04
2023-04-03T06:53:09.372Z,2.10
2023-04-03T06:56:12.271Z,2.30
2023-04-03T06:59:16.112Z,2.32
2023-04-03T07:02:19.297Z,2.18
2023-04-03T07:05:22.220Z,2.27
2023-04-03T07:08:27.109Z,2.42
2023-04-03T07:11:29.868Z,2.48
2023-04-03T07:14:32.579Z,2.54
2023-04-03T07:17:35.482Z,2.55
2023-04-03T07:20:38.442Z,2.52
2023-04-03T07:23:41.516Z,2.65
2023-04-03T07:26:46.525Z,2.93
2023-04-03T07:29:49.975Z,2.53
2023-04-03T07:32:52.783Z,2.69
2023-04-03T07:35:55.877Z,3.56
2023-04-03T07:38:59.286Z,4.14
2023-04-03T07:42:02.417Z,5.02
2023-04-03T07:45:06.032Z,4.39
2023-04-03T07:48:08.893Z,3.67
2023-04-03T07:51:12.178Z,3.97
2023-04-03T07:54:14.979Z,3.72
2023-04-03T07:57:18.005Z,4.11
2023-04-03T08:00:21.080Z,3.91
2023-04-03T08:03:23.996Z,4.65
2023-04-03T08:06:42.085Z,3.81
2023-04-03T08:09:48.969Z,3.72
2023-04-03T08:12:52.725Z,4.01
2023-04-03T08:15:55.960Z,4.11
2023-04-03T08:18:58.749Z,4.05
2023-04-03T08:22:04.165Z,3.47
2023-04-03T08:25:07.358Z,3.43
2023-04-03T08:28:14.067Z,3.73
2023-04-03T08:31:19.930Z,3.81
2023-04-03T08:34:22.612Z,3.93
2023-04-03T08:37:25.375Z,4.41
2023-04-03T08:40:28.438Z,3.99
2023-04-03T08:44:09.278Z,4.18
2023-04-03T08:47:36.041Z,4.16
2023-04-03T08:50:48.431Z,4.42
2023-04-03T08:54:04.660Z,3.72
2023-04-03T08:57:07.876Z,3.33
2023-04-03T09:00:21.244Z,3.71
2023-04-03T09:03:24.276Z,3.65
2023-04-03T09:06:34.274Z,3.72
2023-04-03T09:09:42.489Z,4.03
2023-04-03T09:12:54.960Z,3.68
2023-04-03T09:15:58.217Z,4.04
2023-04-03T09:19:14.755Z,3.98
2023-04-03T09:22:30.244Z,3.80
2023-04-03T09:25:37.124Z,3.75
2023-04-03T09:28:50.443Z,3.59
2023-04-03T09:32:04.535Z,3.89
2023-04-03T09:35:40.625Z,3.38
2023-04-03T09:39:07.618Z,3.29
2023-04-03T09:42:21.333Z,3.54
2023-04-03T09:45:26.042Z,3.50
2023-04-03T09:48:29.489Z,3.61
2023-04-03T09:51:32.884Z,3.43
2023-04-03T09:54:41.019Z,3.47
2023-04-03T09:57:44.209Z,3.41
2023-04-03T10:00:55.999Z,3.21
2023-04-03T10:04:07.933Z,3.36
2023-04-03T10:07:32.924Z,3.44
2023-04-03T10:10:36.411Z,4.05
2023-04-03T10:13:55.694Z,3.52
2023-04-03T10:17:04.739Z,3.82
2023-04-03T10:20:20.561Z,3.97
2023-04-03T10:23:30.584Z,3.87
2023-04-03T10:26:37.188Z,3.67
2023-04-03T10:29:40.306Z,3.40
2023-04-03T10:32:54.755Z,3.40
2023-04-03T10:35:58.112Z,3.43
2023-04-03T10:39:13.131Z,3.64
2023-04-03T10:42:31.131Z,4.06
2023-04-03T10:46:06.564Z,3.90
2023-04-03T10:50:17.205Z,3.83
2023-04-03T10:53:25.760Z,3.99
2023-04-03T10:56:31.535Z,4.23
2023-04-03T10:59:37.188Z,3.87
2023-04-03T11:03:05.272Z,4.11
2023-04-03T11:06:10.289Z,3.84
2023-04-03T11:09:30.306Z,4.08
2023-04-03T11:12:49.828Z,3.80
2023-04-03T11:15:55.783Z,3.50
2023-04-03T11:19:06.810Z,3.43
2023-04-03T11:23:05.398Z,3.13
2023-04-03T11:26:17.715Z,3.36
2023-04-03T11:29:34.990Z,3.44
2023-04-03T11:32:38.409Z,3.01
2023-04-03T11:35:46.753Z,3.59
2023-04-03T11:38:51.142Z,4.14
2023-04-03T11:42:03.502Z,4.01
2023-04-03T11:45:52.498Z,4.26
2023-04-03T11:48:57.866Z,4.25
2023-04-03T11:52:01.070Z,4.68
2023-04-03T11:55:04.282Z,4.89
2023-04-03T11:58:18.807Z,5.10
2023-04-03T12:01:45.252Z,4.64
2023-04-03T12:05:27.439Z,5.24
2023-04-03T12:08:32.579Z,5.19
2023-04-03T12:11:42.671Z,4.75
2023-04-03T12:14:46.380Z,4.76
2023-04-03T12:17:49.172Z,4.28
2023-04-03T12:20:59.310Z,3.63
2023-04-03T12:24:06.084Z,3.84
2023-04-03T12:27:42.456Z,4.29
2023-04-03T12:30:45.394Z,4.25
2023-04-03T12:33:51.100Z,4.64
2023-04-03T12:37:39.243Z,5.34
2023-04-03T12:40:58.820Z,5.23
2023-04-03T12:44:19.790Z,5.00
2023-04-03T12:47:34.647Z,4.79
2023-04-03T12:50:38.609Z,4.82
2023-04-03T12:53:43.326Z,5.18
2023-04-03T12:56:46.603Z,4.84
2023-04-03T12:59:50.133Z,5.39
2023-04-03T13:02:53.447Z,5.22
2023-04-03T13:06:03.386Z,5.10
2023-04-03T13:09:06.693Z,5.44
2023-04-03T13:12:15.298Z,5.09
2023-04-03T13:15:42.870Z,5.22
2023-04-03T13:18:53.130Z,5.06
2023-04-03T13:22:03.466Z,5.11
2023-04-03T13:25:09.456Z,5.00
2023-04-03T13:28:16.551Z,4.99
2023-04-03T13:31:29.830Z,5.77
2023-04-03T13:34:45.298Z,5.63
2023-04-03T13:38:02.430Z,5.29
2023-04-03T13:41:27.215Z,5.47
2023-04-03T13:44:50.502Z,5.56
2023-04-03T13:47:56.698Z,5.28
2023-04-03T13:51:00.036Z,5.16
2023-04-03T13:54:19.159Z,5.15
2023-04-03T13:57:22.444Z,5.27
2023-04-03T14:00:32.088Z,5.64
2023-04-03T14:04:02.959Z,5.48
2023-04-03T14:07:06.131Z,5.66
2023-04-03T14:10:09.435Z,5.08
2023-04-03T14:13:16.182Z,4.58
2023-04-03T14:16:25.512Z,4.89
2023-04-03T14:19:34.705Z,5.31
2023-04-03T14:22:37.596Z,4.88
2023-04-03T14:25:41.478Z,5.05
2023-04-03T14:28:48.664Z,4.86
2023-04-03T14:32:07.473Z,4.78
2023-04-03T14:35:18.638Z,4.74
2023-04-03T14:38:31.689Z,4.93
2023-04-03T14:41:34.778Z,4.75
2023-04-03T14:44:37.616Z,4.97
2023-04-03T14:47:50.140Z,5.04
2023-04-03T14:51:04.574Z,4.76
2023-04-03T14:54:15.322Z,4.85
2023-04-03T14:57:18.689Z,4.70
2023-04-03T15:00:23.074Z,4.70
2023-04-03T15:03:26.350Z,4.57
2023-04-03T15:06:29.287Z,4.74
2023-04-03T15:09:32.405Z,4.50
2023-04-03T15:12:35.268Z,4.56
2023-04-03T15:15:38.714Z,4.43
2023-04-03T15:18:41.747Z,4.44
2023-04-03T15:21:44.607Z,4.45
2023-04-03T15:24:47.774Z,4.39
2023-04-03T15:27:50.802Z,4.09
2023-04-03T15:30:53.705Z,4.06
2023-04-03T15:33:56.672Z,4.09
2023-04-03T15:36:59.693Z,4.01
2023-04-03T15:40:02.940Z,4.11
2023-04-03T15:43:07.182Z,4.06
2023-04-03T15:46:10.449Z,3.85
2023-04-03T15:49:14.573Z,4.17
2023-04-03T15:52:17.691Z,4.20
2023-04-03T15:55:20.515Z,4.01
2023-04-03T15:58:23.725Z,4.05
2023-04-03T16:01:26.973Z,3.91
2023-04-03T16:04:30.309Z,3.71
2023-04-03T16:07:35.453Z,3.72
2023-04-03T16:10:39.422Z,3.80
2023-04-03T16:13:43.667Z,3.79
2023-04-03T16:16:46.635Z,3.65
2023-04-03T16:19:49.776Z,3.56
2023-04-03T16:22:52.925Z,3.39
2023-04-03T16:25:55.830Z,3.32
2023-04-03T16:28:58.729Z,3.14
2023-04-03T16:32:01.729Z,3.13
2023-04-03T16:35:05.211Z,3.09
2023-04-03T16:38:08.667Z,3.12
2023-04-03T16:41:11.724Z,3.01
2023-04-03T16:44:15.093Z,2.95
2023-04-03T16:47:20.537Z,3.02
2023-04-03T16:50:23.695Z,3.00
2023-04-03T16:53:28.068Z,3.15
2023-04-03T16:56:31.710Z,3.05
2023-04-03T16:59:34.677Z,2.96
2023-04-03T17:02:37.602Z,2.95
2023-04-03T17:05:40.860Z,2.93
2023-04-03T17:08:45.836Z,2.90
2023-04-03T17:12:05.213Z,2.81
2023-04-03T17:15:08.669Z,2.78
2023-04-03T17:18:11.787Z,2.67
2023-04-03T17:21:15.437Z,2.57
2023-04-03T17:24:18.559Z,2.54
2023-04-03T17:27:21.862Z,2.46
2023-04-03T17:30:24.941Z,2.45
2023-04-03T17:33:28.789Z,2.38
2023-04-03T17:36:32.984Z,2.35
2023-04-03T17:39:36.151Z,2.30
2023-04-03T17:42:39.342Z,2.30
2023-04-03T17:45:44.580Z,2.35
2023-04-03T17:48:47.333Z,2.43
2023-04-03T17:51:50.218Z,2.25
2023-04-03T17:54:53.096Z,2.24
2023-04-03T17:57:56.250Z,2.16
2023-04-03T18:00:59.159Z,2.20
2023-04-03T18:04:04.934Z,2.15
2023-04-03T18:07:10.311Z,2.06
2023-04-03T18:10:15.148Z,2.08
2023-04-03T18:13:17.925Z,2.02
2023-04-03T18:16:21.011Z,1.90
2023-04-03T18:19:24.887Z,1.85
2023-04-03T18:22:28.098Z,1.78
2023-04-03T18:28:35.998Z,1.82
2023-04-03T18:31:42.590Z,1.71
2023-04-03T18:34:45.686Z,1.59
2023-04-03T18:37:48.849Z,1.64
2023-04-03T18:40:52.831Z,1.59
2023-04-03T18:43:57.347Z,1.45
2023-04-03T18:47:00.987Z,1.47
2023-04-03T18:50:08.552Z,1.45
2023-04-03T18:53:11.717Z,1.50
2023-04-03T18:56:14.912Z,1.39
2023-04-03T18:59:17.942Z,1.39
2023-04-03T19:02:24.810Z,1.38
2023-04-03T19:05:32.084Z,1.34
2023-04-03T19:08:35.266Z,1.29
2023-04-03T19:11:38.401Z,1.19
2023-04-03T19:14:41.559Z,1.19
2023-04-03T19:17:44.589Z,1.20
2023-04-03T19:20:47.501Z,1.22
2023-04-03T19:23:50.246Z,1.21
2023-04-03T19:26:53.717Z,1.02
2023-04-03T19:29:56.628Z,1.14
2023-04-03T19:32:59.381Z,1.10
2023-04-03T19:36:06.132Z,0.97
2023-04-03T19:39:08.826Z,0.95
2023-04-03T19:42:12.025Z,0.90
2023-04-03T19:45:20.132Z,0.99
2023-04-03T19:48:23.451Z,0.89
2023-04-03T19:51:26.572Z,0.93
2023-04-03T19:54:29.322Z,0.84
2023-04-03T19:57:32.211Z,0.79
2023-04-03T20:00:34.939Z,0.85
2023-04-03T20:03:37.643Z,0.82
2023-04-03T20:06:41.381Z,0.75
2023-04-03T20:09:44.156Z,0.82
2023-04-03T20:12:46.976Z,0.78
2023-04-03T20:15:49.651Z,0.76
2023-04-03T20:18:55.401Z,0.71
2023-04-03T20:22:01.164Z,0.77
2023-04-03T20:25:06.833Z,0.72
2023-04-03T20:28:11.416Z,0.67
2023-04-03T20:31:14.501Z,0.54
2023-04-03T20:34:18.650Z,0.52
2023-04-03T20:37:24.713Z,0.51
2023-04-03T20:40:27.959Z,0.53
2023-04-03T20:43:31.644Z,0.52
2023-04-03T20:46:48.845Z,0.50
2023-04-03T20:49:55.988Z,0.50
2023-04-03T20:52:59.190Z,0.46
2023-04-03T20:56:02.332Z,0.47
2023-04-03T20:59:05.582Z,0.42
2023-04-03T21:02:08.857Z,0.34
2023-04-03T21:05:12.250Z,0.34
2023-04-03T21:08:53.263Z,0.30
2023-04-03T21:12:33.779Z,0.20
2023-04-03T21:16:00.353Z,0.28
2023-04-03T21:19:12.795Z,0.28
2023-04-03T21:22:16.728Z,0.32
2023-04-03T21:25:19.429Z,0.25
2023-04-03T21:28:23.244Z,0.15
2023-04-03T21:31:49.174Z,0.14
2023-04-03T21:34:52.128Z,0.10
2023-04-03T21:37:55.115Z,0.22
2023-04-03T21:41:01.246Z,0.11
2023-04-03T21:44:04.397Z,0.08
2023-04-03T21:47:07.939Z,-0.07
2023-04-03T21:50:11.199Z,-0.10
2023-04-03T21:53:15.146Z,-0.09
2023-04-03T21:56:18.558Z,-0.06
2023-04-03T21:59:21.595Z,-0.06
2023-04-03T22:02:26.898Z,-0.08
2023-04-03T22:05:32.435Z,-0.10
2023-04-03T22:08:35.795Z,-0.06
2023-04-03T22:11:40.628Z,-0.05
2023-04-03T22:14:45.010Z,-0.14
2023-04-03T22:17:47.914Z,-0.10
2023-04-03T22:20:51.014Z,-0.13
2023-04-03T22:23:54.915Z,-0.10
2023-04-03T22:26:57.889Z,-0.15
2023-04-03T22:30:00.789Z,-0.07
2023-04-03T22:33:03.561Z,-0.08
2023-04-03T22:36:07.733Z,-0.10
2023-04-03T22:39:11.329Z,-0.15
2023-04-03T22:42:14.126Z,-0.24
2023-04-03T22:45:17.035Z,-0.16
2023-04-03T22:48:19.866Z,-0.14
2023-04-03T22:51:22.839Z,-0.14
2023-04-03T22:54:25.755Z,-0.15
2023-04-03T22:57:28.345Z,-0.18
2023-04-03T23:00:31.142Z,-0.11
2023-04-03T23:03:35.989Z,-0.24
2023-04-03T23:06:38.739Z,-0.25
2023-04-03T23:09:41.442Z,-0.23
2023-04-03T23:12:44.391Z,-0.19
2023-04-03T23:15:53.634Z,-0.25
2023-04-03T23:18:56.367Z,-0.28
2023-04-03T23:21:59.227Z,-0.21
2023-04-03T23:25:02.568Z,-0.25
2023-04-03T23:28:05.326Z,-0.31
2023-04-03T23:31:08.411Z,-0.25
2023-04-03T23:34:11.208Z,-0.35
2023-04-03T23:37:13.979Z,-0.24
2023-04-03T23:40:17.032Z,-0.25
2023-04-03T23:43:19.714Z,-0.22
2023-04-03T23:46:22.497Z,-0.28
2023-04-03T23:49:25.640Z,-0.38
2023-04-03T23:52:28.785Z,-0.36
2023-04-03T23:55:32.045Z,-0.35
2023-04-03T23:58:35.063Z,-0.35
